createdAt,value
2023-05-10T00:00:16.425Z,2.30
2023-05-10T00:02:45.856Z,2.23
2023-05-10T00:05:14.250Z,2.57
2023-05-10T00:07:45.921Z,2.67
2023-05-10T00:10:15.222Z,2.93
2023-05-10T00:12:44.174Z,3.53
2023-05-10T00:15:13.069Z,2.67
2023-05-10T00:17:41.711Z,3.67
2023-05-10T00:20:11.892Z,2.60
2023-05-10T00:22:40.210Z,2.33
2023-05-10T00:25:11.662Z,2.20
2023-05-10T00:27:40.013Z,2.50
2023-05-10T00:30:10.261Z,1.80
2023-05-10T00:32:38.632Z,1.60
2023-05-10T00:35:08.040Z,1.30
2023-05-10T00:37:36.490Z,1.63
2023-05-10T00:40:05.962Z,1.30
2023-05-10T00:42:35.815Z,1.17
2023-05-10T00:45:04.315Z,1.40
2023-05-10T00:47:33.436Z,1.50
2023-05-10T00:50:02.359Z,1.23
2023-05-10T00:52:33.903Z,1.20
2023-05-10T00:55:03.585Z,1.07
2023-05-10T00:57:32.404Z,1.10
2023-05-10T01:00:02.215Z,0.73
2023-05-10T01:02:30.932Z,0.80
2023-05-10T01:04:59.465Z,0.90
2023-05-10T01:07:27.801Z,0.80
2023-05-10T01:09:56.102Z,0.63
2023-05-10T01:12:24.777Z,0.93
2023-05-10T01:14:53.350Z,0.77
2023-05-10T01:17:24.322Z,0.80
2023-05-10T01:19:52.777Z,0.50
2023-05-10T01:22:49.768Z,0.77
2023-05-10T01:25:45.619Z,0.50
2023-05-10T01:29:01.966Z,0.60
2023-05-10T01:32:03.940Z,1.07
2023-05-10T01:34:40.485Z,0.40
2023-05-10T01:37:13.509Z,0.70
2023-05-10T01:39:49.007Z,0.70
2023-05-10T01:42:24.156Z,0.60
2023-05-10T01:45:03.358Z,0.60
2023-05-10T01:47:39.889Z,0.70
2023-05-10T01:50:19.467Z,0.60
2023-05-10T01:52:54.191Z,0.60
2023-05-10T01:55:26.735Z,0.80
2023-05-10T01:58:04.548Z,0.70
2023-05-10T02:00:34.403Z,1.00
2023-05-10T02:03:07.882Z,0.70
2023-05-10T02:05:39.075Z,0.80
2023-05-10T02:08:09.420Z,0.70
2023-05-10T02:10:40.054Z,0.60
2023-05-10T02:13:10.499Z,0.50
2023-05-10T02:15:41.094Z,0.90
2023-05-10T02:18:11.671Z,0.93
2023-05-10T02:20:41.936Z,0.80
2023-05-10T02:23:12.057Z,0.80
2023-05-10T02:25:41.358Z,0.60
2023-05-10T02:28:10.944Z,0.70
2023-05-10T02:30:40.116Z,0.73
2023-05-10T02:33:09.555Z,0.70
2023-05-10T02:35:38.223Z,0.73
2023-05-10T02:38:09.713Z,0.70
2023-05-10T02:40:39.997Z,0.70
2023-05-10T02:43:11.819Z,0.90
2023-05-10T02:45:41.977Z,0.60
2023-05-10T02:48:11.876Z,0.70
2023-05-10T02:50:46.140Z,0.90
2023-05-10T02:53:21.383Z,0.73
2023-05-10T02:55:54.496Z,0.77
2023-05-10T02:58:24.459Z,0.67
2023-05-10T03:00:53.009Z,0.63
2023-05-10T03:03:22.218Z,1.27
2023-05-10T03:05:54.784Z,0.70
2023-05-10T03:08:25.527Z,0.93
2023-05-10T03:11:08.319Z,1.10
2023-05-10T03:13:46.768Z,0.80
2023-05-10T03:16:19.123Z,0.90
2023-05-10T03:18:55.935Z,0.80
2023-05-10T03:21:28.263Z,1.07
2023-05-10T03:24:07.959Z,1.00
2023-05-10T03:26:39.506Z,1.03
2023-05-10T03:29:13.730Z,0.90
2023-05-10T03:31:43.561Z,0.90
2023-05-10T03:34:12.301Z,0.70
2023-05-10T03:36:40.724Z,0.70
2023-05-10T03:39:11.513Z,0.87
2023-05-10T03:41:40.052Z,1.00
2023-05-10T03:44:08.504Z,1.00
2023-05-10T03:46:36.944Z,1.17
2023-05-10T03:49:05.324Z,1.30
2023-05-10T03:51:33.756Z,0.90
2023-05-10T03:54:02.146Z,1.13
2023-05-10T03:56:34.047Z,1.00
2023-05-10T03:59:02.576Z,1.27
2023-05-10T04:01:32.976Z,1.07
2023-05-10T04:04:01.517Z,1.10
2023-05-10T04:06:30.095Z,1.20
2023-05-10T04:09:00.843Z,1.40
2023-05-10T04:11:29.155Z,0.87
2023-05-10T04:13:59.372Z,0.90
2023-05-10T04:16:27.775Z,1.00
2023-05-10T04:18:56.200Z,1.00
2023-05-10T04:21:24.731Z,1.57
2023-05-10T04:23:53.258Z,1.17
2023-05-10T04:26:21.642Z,1.17
2023-05-10T04:28:50.047Z,1.27
2023-05-10T04:31:19.848Z,1.03
2023-05-10T04:33:48.278Z,1.27
2023-05-10T04:36:16.590Z,1.10
2023-05-10T04:38:44.910Z,1.10
2023-05-10T04:41:13.690Z,1.20
2023-05-10T04:43:42.072Z,1.30
2023-05-10T04:46:10.438Z,1.23
2023-05-10T04:48:40.187Z,1.23
2023-05-10T04:51:08.542Z,1.20
2023-05-10T04:53:36.929Z,1.20
2023-05-10T04:56:05.846Z,1.50
2023-05-10T04:58:34.465Z,1.43
2023-05-10T05:01:09.182Z,1.50
2023-05-10T05:03:39.207Z,1.23
2023-05-10T05:06:08.393Z,1.60
2023-05-10T05:08:36.793Z,0.93
2023-05-10T05:11:05.391Z,1.57
2023-05-10T05:13:33.752Z,1.40
2023-05-10T05:16:03.751Z,1.80
2023-05-10T05:18:32.187Z,1.60
2023-05-10T05:21:01.956Z,1.53
2023-05-10T05:23:31.205Z,1.50
2023-05-10T05:25:59.536Z,2.20
2023-05-10T05:28:29.330Z,1.80
2023-05-10T05:30:57.683Z,1.70
2023-05-10T05:33:26.081Z,1.50
2023-05-10T05:35:54.419Z,1.70
2023-05-10T05:38:24.709Z,1.83
2023-05-10T05:40:53.084Z,1.73
2023-05-10T05:43:21.451Z,1.60
2023-05-10T05:45:49.875Z,1.80
2023-05-10T05:48:18.272Z,2.27
2023-05-10T05:50:46.691Z,2.37
2023-05-10T05:53:15.579Z,2.87
2023-05-10T05:55:54.654Z,2.27
2023-05-10T05:58:23.664Z,2.70
2023-05-10T06:00:53.011Z,2.50
2023-05-10T06:03:22.304Z,2.53
2023-05-10T06:05:50.817Z,2.70
2023-05-10T06:08:19.164Z,2.93
2023-05-10T06:10:49.095Z,2.60
2023-05-10T06:13:17.674Z,3.03
2023-05-10T06:15:46.423Z,2.60
2023-05-10T06:18:14.933Z,2.37
2023-05-10T06:20:44.263Z,2.80
2023-05-10T06:23:12.817Z,2.97
2023-05-10T06:25:41.244Z,2.63
2023-05-10T06:28:10.944Z,2.60
2023-05-10T06:30:39.567Z,3.07
2023-05-10T06:33:07.994Z,3.27
2023-05-10T06:35:36.393Z,3.00
2023-05-10T06:38:04.818Z,3.07
2023-05-10T06:40:33.901Z,2.80
2023-05-10T06:43:02.295Z,2.87
2023-05-10T06:45:32.089Z,2.70
2023-05-10T06:48:00.736Z,3.17
2023-05-10T06:50:29.339Z,2.87
2023-05-10T06:52:57.784Z,3.10
2023-05-10T06:55:26.509Z,3.23
2023-05-10T06:57:54.967Z,3.60
2023-05-10T07:00:23.609Z,3.83
2023-05-10T07:02:53.574Z,3.30
2023-05-10T07:05:22.459Z,3.40
2023-05-10T07:07:51.283Z,3.40
2023-05-10T07:10:19.752Z,3.77
2023-05-10T07:12:48.187Z,2.87
2023-05-10T07:15:17.294Z,3.30
2023-05-10T07:17:46.502Z,2.77
2023-05-10T07:20:16.741Z,2.87
2023-05-10T07:22:45.151Z,2.40
2023-05-10T07:25:13.833Z,2.97
2023-05-10T07:27:42.214Z,2.83
2023-05-10T07:30:11.928Z,2.83
2023-05-10T07:32:42.818Z,3.23
2023-05-10T07:35:11.475Z,3.20
2023-05-10T07:37:41.288Z,2.93
2023-05-10T07:40:11.313Z,2.80
2023-05-10T07:42:39.646Z,2.87
2023-05-10T07:45:10.128Z,2.97
2023-05-10T07:47:38.658Z,2.27
2023-05-10T07:50:09.607Z,2.43
2023-05-10T07:52:38.105Z,2.67
2023-05-10T07:55:10.995Z,3.00
2023-05-10T07:57:40.378Z,2.50
2023-05-10T08:00:10.607Z,2.60
2023-05-10T08:02:42.979Z,2.47
2023-05-10T08:05:11.626Z,3.10
2023-05-10T08:07:40.490Z,2.87
2023-05-10T08:10:13.090Z,2.80
2023-05-10T08:12:41.468Z,3.40
2023-05-10T08:15:12.237Z,3.43
2023-05-10T08:17:40.679Z,2.93
2023-05-10T08:20:10.207Z,3.83
2023-05-10T08:22:39.012Z,2.50
2023-05-10T08:25:10.145Z,2.53
2023-05-10T08:27:38.598Z,2.60
2023-05-10T08:30:09.011Z,2.53
2023-05-10T08:32:39.071Z,2.50
2023-05-10T08:35:08.235Z,2.80
2023-05-10T08:37:36.642Z,2.53
2023-05-10T08:40:05.937Z,2.57
2023-05-10T08:42:39.272Z,2.10
2023-05-10T08:45:10.390Z,2.57
2023-05-10T08:47:39.493Z,2.20
2023-05-10T08:50:10.147Z,2.60
2023-05-10T08:52:42.530Z,2.67
2023-05-10T08:55:11.291Z,2.80
2023-05-10T08:57:41.175Z,2.70
2023-05-10T09:00:11.696Z,2.43
2023-05-10T09:02:40.310Z,2.60
2023-05-10T09:05:11.570Z,2.80
2023-05-10T09:07:40.076Z,2.50
2023-05-10T09:10:11.355Z,2.23
2023-05-10T09:12:41.271Z,2.60
2023-05-10T09:15:11.794Z,2.50
2023-05-10T09:17:42.467Z,2.60
2023-05-10T09:20:11.412Z,2.50
2023-05-10T09:22:39.833Z,2.23
2023-05-10T09:25:11.885Z,2.43
2023-05-10T09:27:43.348Z,2.67
2023-05-10T09:30:12.540Z,3.10
2023-05-10T09:32:42.853Z,2.53
2023-05-10T09:35:12.630Z,2.63
2023-05-10T09:37:43.567Z,2.33
2023-05-10T09:40:16.161Z,2.30
2023-05-10T09:42:55.716Z,2.33
2023-05-10T09:45:25.321Z,2.73
2023-05-10T09:47:54.209Z,2.77
2023-05-10T09:50:23.951Z,2.27
2023-05-10T09:52:54.901Z,2.80
2023-05-10T09:55:25.981Z,2.20
2023-05-10T09:58:03.717Z,1.63
2023-05-10T10:00:38.546Z,1.90
2023-05-10T10:03:07.916Z,1.70
2023-05-10T10:05:37.969Z,1.40
2023-05-10T10:08:08.079Z,1.40
2023-05-10T10:10:36.758Z,1.60
2023-05-10T10:13:06.762Z,1.67
2023-05-10T10:15:36.580Z,2.07
2023-05-10T10:18:06.739Z,2.37
2023-05-10T10:20:35.173Z,3.80
2023-05-10T10:23:04.334Z,2.80
2023-05-10T10:25:33.130Z,2.60
2023-05-10T10:28:19.626Z,2.50
2023-05-10T10:30:53.269Z,2.03
2023-05-10T10:33:48.068Z,2.40
2023-05-10T10:36:18.267Z,2.77
2023-05-10T10:39:04.176Z,2.00
2023-05-10T10:41:36.250Z,2.10
2023-05-10T10:44:35.900Z,2.60
2023-05-10T10:47:12.640Z,2.17
2023-05-10T10:49:47.796Z,2.50
2023-05-10T10:52:29.564Z,2.50
2023-05-10T10:55:04.994Z,2.10
2023-05-10T10:57:47.708Z,1.90
2023-05-10T11:00:30.320Z,1.90
2023-05-10T11:03:01.437Z,1.37
2023-05-10T11:05:44.119Z,1.50
2023-05-10T11:08:17.146Z,1.40
2023-05-10T11:10:55.474Z,1.50
2023-05-10T11:13:31.509Z,1.50
2023-05-10T11:16:12.437Z,1.60
2023-05-10T11:18:41.055Z,1.00
2023-05-10T11:21:12.538Z,1.40
2023-05-10T11:23:58.450Z,1.40
2023-05-10T11:26:30.385Z,1.40
2023-05-10T11:29:00.176Z,1.40
2023-05-10T11:31:30.936Z,1.50
2023-05-10T11:34:02.648Z,1.40
2023-05-10T11:36:35.162Z,1.20
2023-05-10T11:39:03.904Z,1.47
2023-05-10T11:41:33.617Z,1.17
2023-05-10T11:44:02.065Z,2.07
2023-05-10T11:46:31.858Z,1.50
2023-05-10T11:49:07.107Z,1.53
2023-05-10T11:51:37.776Z,1.40
2023-05-10T11:54:11.636Z,1.40
2023-05-10T11:56:41.082Z,1.70
2023-05-10T11:59:10.018Z,1.30
2023-05-10T12:01:43.466Z,1.70
2023-05-10T12:04:24.659Z,2.50
2023-05-10T12:06:55.076Z,2.13
2023-05-10T12:09:39.478Z,1.70
2023-05-10T12:12:09.235Z,1.77
2023-05-10T12:14:38.720Z,1.70
2023-05-10T12:17:10.657Z,1.70
2023-05-10T12:19:44.756Z,2.20
2023-05-10T12:22:13.185Z,1.87
2023-05-10T12:24:41.637Z,2.03
2023-05-10T12:27:11.189Z,2.50
2023-05-10T12:29:47.437Z,2.30
2023-05-10T12:32:17.264Z,2.27
2023-05-10T12:34:48.846Z,2.10
2023-05-10T12:37:19.972Z,1.87
2023-05-10T12:39:48.344Z,2.40
2023-05-10T12:42:16.809Z,2.03
2023-05-10T12:44:45.224Z,2.40
2023-05-10T12:47:13.645Z,2.00
2023-05-10T12:49:43.507Z,1.40
2023-05-10T12:52:11.873Z,1.20
2023-05-10T12:54:40.210Z,1.27
2023-05-10T12:57:08.697Z,1.70
2023-05-10T12:59:38.165Z,1.80
2023-05-10T13:02:07.005Z,1.83
2023-05-10T13:04:35.350Z,2.30
2023-05-10T13:07:05.115Z,2.00
2023-05-10T13:09:33.417Z,2.10
2023-05-10T13:12:01.863Z,1.50
2023-05-10T13:14:32.229Z,1.40
2023-05-10T13:17:00.882Z,1.57
2023-05-10T13:19:29.247Z,1.63
2023-05-10T13:21:57.590Z,1.43
2023-05-10T13:24:27.264Z,1.53
2023-05-10T13:26:55.620Z,1.40
2023-05-10T13:29:23.972Z,1.47
2023-05-10T13:31:52.508Z,1.90
2023-05-10T13:34:22.231Z,1.50
2023-05-10T13:36:50.819Z,1.40
2023-05-10T13:39:19.177Z,1.30
2023-05-10T13:41:49.109Z,1.10
2023-05-10T13:44:17.976Z,1.00
2023-05-10T13:46:46.375Z,1.30
2023-05-10T13:49:14.784Z,1.70
2023-05-10T13:51:43.099Z,2.20
2023-05-10T13:54:13.460Z,1.60
2023-05-10T13:56:43.496Z,2.17
2023-05-10T13:59:13.266Z,2.47
2023-05-10T14:01:41.726Z,1.87
2023-05-10T14:04:11.347Z,1.47
2023-05-10T14:06:40.003Z,1.23
2023-05-10T14:09:08.470Z,1.30
2023-05-10T14:11:36.949Z,1.60
2023-05-10T14:14:05.327Z,1.10
2023-05-10T14:16:35.353Z,1.10
2023-05-10T14:19:04.246Z,1.30
2023-05-10T14:21:32.816Z,0.87
2023-05-10T14:24:01.182Z,0.90
2023-05-10T14:26:29.528Z,0.90
2023-05-10T14:28:57.974Z,1.20
2023-05-10T14:31:26.697Z,1.30
2023-05-10T14:33:56.680Z,1.10
2023-05-10T14:36:25.111Z,0.80
2023-05-10T14:38:53.482Z,0.97
2023-05-10T14:41:21.859Z,1.40
2023-05-10T14:43:50.242Z,1.23
2023-05-10T14:46:18.833Z,1.57
2023-05-10T14:48:47.503Z,1.40
2023-05-10T14:51:17.526Z,1.80
2023-05-10T14:53:46.237Z,1.50
2023-05-10T14:56:14.834Z,1.30
2023-05-10T14:58:43.604Z,1.70
2023-05-10T15:01:12.038Z,1.00
2023-05-10T15:03:40.917Z,1.03
2023-05-10T15:06:11.648Z,1.33
2023-05-10T15:08:41.441Z,1.33
2023-05-10T15:11:09.844Z,1.00
2023-05-10T15:13:38.177Z,1.00
2023-05-10T15:16:06.861Z,1.10
2023-05-10T15:18:35.643Z,1.63
2023-05-10T15:21:04.309Z,1.67
2023-05-10T15:23:33.053Z,1.40
2023-05-10T15:26:03.827Z,1.40
2023-05-10T15:28:33.674Z,1.67
2023-05-10T15:31:02.704Z,1.40
2023-05-10T15:33:31.172Z,1.90
2023-05-10T15:35:59.533Z,2.00
2023-05-10T15:38:27.939Z,1.70
2023-05-10T15:40:59.688Z,1.03
2023-05-10T15:43:29.503Z,1.80
2023-05-10T15:45:57.963Z,1.20
2023-05-10T15:48:26.377Z,1.40
2023-05-10T15:50:54.787Z,1.37
2023-05-10T15:53:23.154Z,2.20
2023-05-10T15:55:54.012Z,1.83
2023-05-10T15:58:22.353Z,1.83
2023-05-10T16:00:52.957Z,1.30
2023-05-10T16:03:22.117Z,1.60
2023-05-10T16:05:50.581Z,1.60
2023-05-10T16:08:19.204Z,1.93
2023-05-10T16:10:47.649Z,1.70
2023-05-10T16:13:16.957Z,1.80
2023-05-10T16:15:45.553Z,2.20
2023-05-10T16:18:17.796Z,2.83
2023-05-10T16:20:46.450Z,1.60
2023-05-10T16:23:15.262Z,1.57
2023-05-10T16:25:43.660Z,1.90
2023-05-10T16:28:12.132Z,1.63
2023-05-10T16:30:40.703Z,2.47
2023-05-10T16:33:09.157Z,2.13
2023-05-10T16:35:39.124Z,2.40
2023-05-10T16:38:07.499Z,2.27
2023-05-10T16:40:35.874Z,2.43
2023-05-10T16:43:04.259Z,1.67
2023-05-10T16:45:33.147Z,1.50
2023-05-10T16:48:01.724Z,1.23
2023-05-10T16:50:30.231Z,1.60
2023-05-10T16:53:00.157Z,1.87
2023-05-10T16:55:28.719Z,1.97
2023-05-10T16:57:59.793Z,1.80
2023-05-10T17:00:28.509Z,1.60
2023-05-10T17:02:57.181Z,1.03
2023-05-10T17:05:25.687Z,1.70
2023-05-10T17:07:54.748Z,1.60
2023-05-10T17:10:24.910Z,1.97
2023-05-10T17:12:53.683Z,1.93
2023-05-10T17:15:22.228Z,2.07
2023-05-10T17:17:50.727Z,1.80
2023-05-10T17:20:19.658Z,1.20
2023-05-10T17:22:47.966Z,1.20
2023-05-10T17:25:16.739Z,1.47
2023-05-10T17:27:46.637Z,1.33
2023-05-10T17:30:15.834Z,1.90
2023-05-10T17:32:44.361Z,1.80
2023-05-10T17:35:12.700Z,1.57
2023-05-10T17:37:41.564Z,2.07
2023-05-10T17:40:11.683Z,1.40
2023-05-10T17:42:40.153Z,1.47
2023-05-10T17:45:11.837Z,1.90
2023-05-10T17:47:40.271Z,1.80
2023-05-10T17:50:10.288Z,1.60
2023-05-10T17:52:38.663Z,1.30
2023-05-10T17:55:08.574Z,1.70
2023-05-10T17:57:38.142Z,1.50
2023-05-10T18:00:10.842Z,1.50
2023-05-10T18:02:39.502Z,1.50
2023-05-10T18:05:09.064Z,1.40
2023-05-10T18:07:37.493Z,2.10
2023-05-10T18:10:07.120Z,1.53
2023-05-10T18:12:35.467Z,1.40
2023-05-10T18:15:04.094Z,1.60
2023-05-10T18:17:35.074Z,1.77
2023-05-10T18:20:03.632Z,1.77
2023-05-10T18:22:31.978Z,1.50
2023-05-10T18:25:00.339Z,1.80
2023-05-10T18:27:29.172Z,2.20
2023-05-10T18:29:57.489Z,2.20
2023-05-10T18:32:26.352Z,2.27
2023-05-10T18:34:56.639Z,1.70
2023-05-10T18:37:25.203Z,1.80
2023-05-10T18:39:54.004Z,1.90
2023-05-10T18:42:22.394Z,1.63
2023-05-10T18:44:50.691Z,2.00
2023-05-10T18:47:19.080Z,1.60
2023-05-10T18:49:47.416Z,1.83
2023-05-10T18:52:17.135Z,1.73
2023-05-10T18:54:45.481Z,1.90
2023-05-10T18:57:14.093Z,1.90
2023-05-10T18:59:42.412Z,2.00
2023-05-10T19:02:10.888Z,1.93
2023-05-10T19:04:39.286Z,1.80
2023-05-10T19:07:07.679Z,1.87
2023-05-10T19:09:37.359Z,2.27
2023-05-10T19:12:05.958Z,1.80
2023-05-10T19:14:34.283Z,2.03
2023-05-10T19:17:03.504Z,2.63
2023-05-10T19:19:31.889Z,2.60
2023-05-10T19:22:00.260Z,2.90
2023-05-10T19:24:28.640Z,3.90
2023-05-10T19:26:58.511Z,4.37
2023-05-10T19:29:27.649Z,3.60
2023-05-10T19:31:56.153Z,4.03
2023-05-10T19:34:24.614Z,4.80
2023-05-10T19:36:52.982Z,4.00
2023-05-10T19:39:21.452Z,3.70
2023-05-10T19:41:50.462Z,3.00
2023-05-10T19:44:20.148Z,2.57
2023-05-10T19:46:48.550Z,3.00
2023-05-10T19:49:17.566Z,3.00
2023-05-10T19:51:46.023Z,2.77
2023-05-10T19:54:14.342Z,2.50
2023-05-10T19:56:42.675Z,3.20
2023-05-10T19:59:11.065Z,3.83
2023-05-10T20:01:40.916Z,2.60
2023-05-10T20:04:10.145Z,2.77
2023-05-10T20:06:38.932Z,2.70
2023-05-10T20:09:07.293Z,2.60
2023-05-10T20:11:36.147Z,2.37
2023-05-10T20:14:05.400Z,2.50
2023-05-10T20:16:33.915Z,2.63
2023-05-10T20:19:03.830Z,2.30
2023-05-10T20:21:33.632Z,2.67
2023-05-10T20:24:02.079Z,2.70
2023-05-10T20:26:30.601Z,2.60
2023-05-10T20:28:58.955Z,2.60
2023-05-10T20:31:27.331Z,2.70
2023-05-10T20:33:55.758Z,2.83
2023-05-10T20:36:26.869Z,2.53
2023-05-10T20:38:55.448Z,3.13
2023-05-10T20:41:24.760Z,2.60
2023-05-10T20:43:53.211Z,2.30
2023-05-10T20:46:21.678Z,2.90
2023-05-10T20:48:50.122Z,1.63
2023-05-10T20:51:18.804Z,2.43
2023-05-10T20:53:48.586Z,1.60
2023-05-10T20:56:17.119Z,2.07
2023-05-10T20:58:45.773Z,2.20
2023-05-10T21:01:14.217Z,1.90
2023-05-10T21:03:42.600Z,2.33
2023-05-10T21:06:10.997Z,2.20
2023-05-10T21:08:42.955Z,2.30
2023-05-10T21:11:13.105Z,2.67
2023-05-10T21:13:41.583Z,2.00
2023-05-10T21:16:09.957Z,2.43
2023-05-10T21:18:38.308Z,2.70
2023-05-10T21:21:06.742Z,2.20
2023-05-10T21:23:35.118Z,1.43
2023-05-10T21:26:04.246Z,1.70
2023-05-10T21:28:34.268Z,2.03
2023-05-10T21:31:02.653Z,2.40
2023-05-10T21:33:30.965Z,2.60
2023-05-10T21:35:59.424Z,3.40
2023-05-10T21:38:29.127Z,2.30
2023-05-10T21:40:57.507Z,2.37
2023-05-10T21:43:25.825Z,2.43
2023-05-10T21:45:55.630Z,2.37
2023-05-10T21:48:23.996Z,2.17
2023-05-10T21:50:52.372Z,2.00
2023-05-10T21:53:20.832Z,2.30
2023-05-10T21:55:49.418Z,2.10
2023-05-10T21:58:17.792Z,2.60
2023-05-10T22:00:46.136Z,4.40
2023-05-10T22:03:16.132Z,2.80
2023-05-10T22:05:44.561Z,2.67
2023-05-10T22:08:13.017Z,2.83
2023-05-10T22:10:41.357Z,2.90
2023-05-10T22:13:09.724Z,3.13
2023-05-10T22:15:38.201Z,2.83
2023-05-10T22:18:06.868Z,2.83
2023-05-10T22:20:36.629Z,3.60
2023-05-10T22:23:04.996Z,3.40
2023-05-10T22:25:33.348Z,3.30
2023-05-10T22:28:01.837Z,3.03
2023-05-10T22:30:32.735Z,3.40
2023-05-10T22:33:01.666Z,4.20
2023-05-10T22:35:30.073Z,2.53
2023-05-10T22:37:59.813Z,2.53
2023-05-10T22:40:28.315Z,2.40
2023-05-10T22:42:56.664Z,2.23
2023-05-10T22:45:24.991Z,2.23
2023-05-10T22:47:53.494Z,2.23
2023-05-10T22:50:22.764Z,1.87
2023-05-10T22:52:51.109Z,2.23
2023-05-10T22:55:20.986Z,1.90
2023-05-10T22:57:49.380Z,1.63
2023-05-10T23:00:19.034Z,2.20
2023-05-10T23:02:47.778Z,2.73
2023-05-10T23:05:16.279Z,2.53
2023-05-10T23:07:44.741Z,2.57
2023-05-10T23:10:13.204Z,2.03
2023-05-10T23:12:42.938Z,2.10
2023-05-10T23:15:12.884Z,2.00
2023-05-10T23:17:41.392Z,1.77
2023-05-10T23:20:11.458Z,2.23
2023-05-10T23:22:40.137Z,1.60
2023-05-10T23:25:10.149Z,1.83
2023-05-10T23:27:38.506Z,2.00
2023-05-10T23:30:10.452Z,1.37
2023-05-10T23:32:38.834Z,1.43
2023-05-10T23:35:08.988Z,1.60
2023-05-10T23:37:37.922Z,1.87
2023-05-10T23:40:08.177Z,1.50
2023-05-10T23:42:36.547Z,1.30
2023-05-10T23:45:07.304Z,1.53
2023-05-10T23:47:35.777Z,1.43
2023-05-10T23:50:05.306Z,1.43
2023-05-10T23:52:33.742Z,1.43
2023-05-10T23:55:02.178Z,1.33
2023-05-10T23:57:30.532Z,1.63
2023-05-10T23:59:58.872Z,1.53
